sensor_id;sensor_type;location;lat;lon;timestamp;temperature;humidity
6822;DHT22;3449;48.728;8.968;2022-08-11T00:01:47;20.20;97.50
6822;DHT22;3449;48.728;8.968;2022-08-11T00:04:15;20.10;97.70
6822;DHT22;3449;48.728;8.968;2022-08-11T00:06:44;20.10;97.70
6822;DHT22;3449;48.728;8.968;2022-08-11T00:09:16;20.00;97.80
6822;DHT22;3449;48.728;8.968;2022-08-11T00:11:46;19.90;97.90
6822;DHT22;3449;48.728;8.968;2022-08-11T00:14:17;19.90;97.90
6822;DHT22;3449;48.728;8.968;2022-08-11T00:16:53;19.90;98.00
6822;DHT22;3449;48.728;8.968;2022-08-11T00:19:23;19.90;98.00
6822;DHT22;3449;48.728;8.968;2022-08-11T00:21:51;19.90;98.20
6822;DHT22;3449;48.728;8.968;2022-08-11T00:24:19;19.90;98.10
6822;DHT22;3449;48.728;8.968;2022-08-11T00:26:48;19.90;98.30
6822;DHT22;3449;48.728;8.968;2022-08-11T00:29:18;19.80;98.30
6822;DHT22;3449;48.728;8.968;2022-08-11T00:31:48;19.80;98.30
6822;DHT22;3449;48.728;8.968;2022-08-11T00:34:19;19.80;98.40
6822;DHT22;3449;48.728;8.968;2022-08-11T00:36:51;19.70;98.30
6822;DHT22;3449;48.728;8.968;2022-08-11T00:39:21;19.70;98.40
6822;DHT22;3449;48.728;8.968;2022-08-11T00:42:02;19.70;98.40
6822;DHT22;3449;48.728;8.968;2022-08-11T00:44:41;19.70;98.50
6822;DHT22;3449;48.728;8.968;2022-08-11T00:47:32;19.70;98.50
6822;DHT22;3449;48.728;8.968;2022-08-11T00:50:08;19.70;98.60
6822;DHT22;3449;48.728;8.968;2022-08-11T00:52:50;19.60;98.60
6822;DHT22;3449;48.728;8.968;2022-08-11T00:56:07;19.60;98.70
6822;DHT22;3449;48.728;8.968;2022-08-11T00:59:10;19.60;98.90
6822;DHT22;3449;48.728;8.968;2022-08-11T01:01:53;19.60;98.80
6822;DHT22;3449;48.728;8.968;2022-08-11T01:04:55;19.60;99.00
6822;DHT22;3449;48.728;8.968;2022-08-11T01:07:57;19.50;99.10
6822;DHT22;3449;48.728;8.968;2022-08-11T01:32:36;19.20;99.90
6822;DHT22;3449;48.728;8.968;2022-08-11T01:39:06;19.10;99.90
6822;DHT22;3449;48.728;8.968;2022-08-11T01:41:59;19.10;99.90
6822;DHT22;3449;48.728;8.968;2022-08-11T01:45:03;19.00;99.90
6822;DHT22;3449;48.728;8.968;2022-08-11T01:47:41;19.00;99.90
6822;DHT22;3449;48.728;8.968;2022-08-11T01:53:23;19.00;99.90
6822;DHT22;3449;48.728;8.968;2022-08-11T01:56:01;19.00;99.90
6822;DHT22;3449;48.728;8.968;2022-08-11T01:58:37;18.90;99.90
6822;DHT22;3449;48.728;8.968;2022-08-11T02:01:19;18.90;99.90
6822;DHT22;3449;48.728;8.968;2022-08-11T02:03:56;18.80;99.90
6822;DHT22;3449;48.728;8.968;2022-08-11T02:06:31;18.80;99.90
6822;DHT22;3449;48.728;8.968;2022-08-11T02:09:37;18.70;99.90
6822;DHT22;3449;48.728;8.968;2022-08-11T02:12:15;18.70;99.90
6822;DHT22;3449;48.728;8.968;2022-08-11T02:14:56;18.60;99.90
6822;DHT22;3449;48.728;8.968;2022-08-11T02:17:49;18.50;99.90
6822;DHT22;3449;48.728;8.968;2022-08-11T02:20:22;18.40;99.90
6822;DHT22;3449;48.728;8.968;2022-08-11T02:23:21;18.40;99.90
6822;DHT22;3449;48.728;8.968;2022-08-11T02:26:11;18.30;99.90
6822;DHT22;3449;48.728;8.968;2022-08-11T02:28:52;18.30;99.90
6822;DHT22;3449;48.728;8.968;2022-08-11T02:31:40;18.20;99.90
6822;DHT22;3449;48.728;8.968;2022-08-11T02:34:34;18.30;99.90
6822;DHT22;3449;48.728;8.968;2022-08-11T02:37:13;18.20;99.90
6822;DHT22;3449;48.728;8.968;2022-08-11T02:39:51;18.20;99.90
6822;DHT22;3449;48.728;8.968;2022-08-11T02:42:27;18.10;99.90
6822;DHT22;3449;48.728;8.968;2022-08-11T02:45:07;18.10;99.90
6822;DHT22;3449;48.728;8.968;2022-08-11T02:47:46;18.00;99.90
6822;DHT22;3449;48.728;8.968;2022-08-11T02:50:32;17.90;99.90
6822;DHT22;3449;48.728;8.968;2022-08-11T02:53:07;17.90;99.90
6822;DHT22;3449;48.728;8.968;2022-08-11T02:55:46;17.80;99.90
6822;DHT22;3449;48.728;8.968;2022-08-11T02:58:29;17.80;99.90
6822;DHT22;3449;48.728;8.968;2022-08-11T03:01:11;17.80;99.90
6822;DHT22;3449;48.728;8.968;2022-08-11T03:03:48;17.80;99.90
6822;DHT22;3449;48.728;8.968;2022-08-11T03:06:26;17.80;99.90
6822;DHT22;3449;48.728;8.968;2022-08-11T03:09:02;17.80;99.90
6822;DHT22;3449;48.728;8.968;2022-08-11T03:11:46;17.80;99.90
6822;DHT22;3449;48.728;8.968;2022-08-11T03:14:41;17.90;99.90
6822;DHT22;3449;48.728;8.968;2022-08-11T03:17:33;18.00;99.90
6822;DHT22;3449;48.728;8.968;2022-08-11T03:20:20;18.00;99.90
6822;DHT22;3449;48.728;8.968;2022-08-11T03:22:57;17.90;99.90
6822;DHT22;3449;48.728;8.968;2022-08-11T03:25:31;17.80;99.90
6822;DHT22;3449;48.728;8.968;2022-08-11T03:28:08;17.60;99.90
6822;DHT22;3449;48.728;8.968;2022-08-11T03:30:46;17.50;99.90
6822;DHT22;3449;48.728;8.968;2022-08-11T03:33:27;17.30;99.90
6822;DHT22;3449;48.728;8.968;2022-08-11T03:36:22;17.20;99.90
6822;DHT22;3449;48.728;8.968;2022-08-11T03:39:06;17.00;99.90
6822;DHT22;3449;48.728;8.968;2022-08-11T03:41:39;17.00;99.90
6822;DHT22;3449;48.728;8.968;2022-08-11T03:44:23;16.90;99.90
6822;DHT22;3449;48.728;8.968;2022-08-11T03:47:13;16.80;99.90
6822;DHT22;3449;48.728;8.968;2022-08-11T03:49:58;16.70;99.90
6822;DHT22;3449;48.728;8.968;2022-08-11T03:52:39;16.60;99.90
6822;DHT22;3449;48.728;8.968;2022-08-11T03:55:13;16.60;99.90
6822;DHT22;3449;48.728;8.968;2022-08-11T04:01:27;16.40;99.90
6822;DHT22;3449;48.728;8.968;2022-08-11T04:10:35;16.30;99.90
6822;DHT22;3449;48.728;8.968;2022-08-11T04:16:29;16.20;99.90
6822;DHT22;3449;48.728;8.968;2022-08-11T04:28:54;16.00;99.90
6822;DHT22;3449;48.728;8.968;2022-08-11T04:31:36;16.00;99.90
6822;DHT22;3449;48.728;8.968;2022-08-11T04:34:34;16.00;99.90
6822;DHT22;3449;48.728;8.968;2022-08-11T04:37:33;16.00;99.90
6822;DHT22;3449;48.728;8.968;2022-08-11T04:43:30;16.00;99.90
6822;DHT22;3449;48.728;8.968;2022-08-11T04:46:25;15.90;99.90
6822;DHT22;3449;48.728;8.968;2022-08-11T04:49:18;15.90;99.90
6822;DHT22;3449;48.728;8.968;2022-08-11T04:52:31;15.90;99.90
6822;DHT22;3449;48.728;8.968;2022-08-11T04:55:46;15.90;99.90
6822;DHT22;3449;48.728;8.968;2022-08-11T04:58:53;16.00;99.90
6822;DHT22;3449;48.728;8.968;2022-08-11T05:02:14;16.00;99.90
6822;DHT22;3449;48.728;8.968;2022-08-11T05:05:08;16.10;99.90
6822;DHT22;3449;48.728;8.968;2022-08-11T05:11:34;16.10;99.90
6822;DHT22;3449;48.728;8.968;2022-08-11T05:14:26;16.20;99.90
6822;DHT22;3449;48.728;8.968;2022-08-11T05:17:33;16.30;99.90
6822;DHT22;3449;48.728;8.968;2022-08-11T05:20:20;16.30;99.90
6822;DHT22;3449;48.728;8.968;2022-08-11T05:23:08;16.40;99.90
6822;DHT22;3449;48.728;8.968;2022-08-11T05:25:55;16.50;99.90
6822;DHT22;3449;48.728;8.968;2022-08-11T05:28:43;16.60;99.90
6822;DHT22;3449;48.728;8.968;2022-08-11T05:31:34;16.70;99.90
6822;DHT22;3449;48.728;8.968;2022-08-11T05:34:22;16.80;99.90
6822;DHT22;3449;48.728;8.968;2022-08-11T05:37:10;17.00;99.90
6822;DHT22;3449;48.728;8.968;2022-08-11T05:39:43;17.10;99.90
6822;DHT22;3449;48.728;8.968;2022-08-11T05:42:28;17.30;99.90
6822;DHT22;3449;48.728;8.968;2022-08-11T05:45:16;17.50;99.90
6822;DHT22;3449;48.728;8.968;2022-08-11T05:48:01;17.60;99.90
6822;DHT22;3449;48.728;8.968;2022-08-11T05:50:52;17.80;99.90
6822;DHT22;3449;48.728;8.968;2022-08-11T05:53:45;17.90;99.90
6822;DHT22;3449;48.728;8.968;2022-08-11T05:56:32;18.10;99.90
6822;DHT22;3449;48.728;8.968;2022-08-11T05:59:00;18.40;99.90
6822;DHT22;3449;48.728;8.968;2022-08-11T06:01:29;18.60;99.90
6822;DHT22;3449;48.728;8.968;2022-08-11T06:03:58;18.80;99.90
6822;DHT22;3449;48.728;8.968;2022-08-11T06:06:48;18.90;99.90
6822;DHT22;3449;48.728;8.968;2022-08-11T06:09:21;19.10;99.90
6822;DHT22;3449;48.728;8.968;2022-08-11T06:11:50;19.20;99.90
6822;DHT22;3449;48.728;8.968;2022-08-11T06:14:18;19.40;99.90
6822;DHT22;3449;48.728;8.968;2022-08-11T06:16:47;19.60;99.90
6822;DHT22;3449;48.728;8.968;2022-08-11T06:19:15;19.80;99.90
6822;DHT22;3449;48.728;8.968;2022-08-11T06:21:46;19.90;99.90
6822;DHT22;3449;48.728;8.968;2022-08-11T06:24:14;20.10;99.90
6822;DHT22;3449;48.728;8.968;2022-08-11T06:26:47;20.20;99.90
6822;DHT22;3449;48.728;8.968;2022-08-11T06:29:16;20.50;99.90
6822;DHT22;3449;48.728;8.968;2022-08-11T06:31:51;20.70;99.90
6822;DHT22;3449;48.728;8.968;2022-08-11T06:34:31;20.80;99.90
6822;DHT22;3449;48.728;8.968;2022-08-11T06:37:20;20.80;99.90
6822;DHT22;3449;48.728;8.968;2022-08-11T06:39:54;20.90;99.90
6822;DHT22;3449;48.728;8.968;2022-08-11T06:42:34;21.10;99.90
6822;DHT22;3449;48.728;8.968;2022-08-11T06:45:06;21.00;99.90
6822;DHT22;3449;48.728;8.968;2022-08-11T06:47:34;21.10;99.90
6822;DHT22;3449;48.728;8.968;2022-08-11T06:50:02;21.20;99.90
6822;DHT22;3449;48.728;8.968;2022-08-11T06:52:52;21.30;99.90
6822;DHT22;3449;48.728;8.968;2022-08-11T06:55:23;21.30;99.90
6822;DHT22;3449;48.728;8.968;2022-08-11T06:58:04;21.50;99.90
6822;DHT22;3449;48.728;8.968;2022-08-11T07:00:56;21.70;99.90
6822;DHT22;3449;48.728;8.968;2022-08-11T07:03:27;21.90;99.90
6822;DHT22;3449;48.728;8.968;2022-08-11T07:06:03;21.90;99.90
6822;DHT22;3449;48.728;8.968;2022-08-11T07:09:00;21.90;99.90
6822;DHT22;3449;48.728;8.968;2022-08-11T07:12:01;21.90;99.90
6822;DHT22;3449;48.728;8.968;2022-08-11T07:14:51;21.90;99.90
6822;DHT22;3449;48.728;8.968;2022-08-11T07:17:43;22.20;99.90
6822;DHT22;3449;48.728;8.968;2022-08-11T07:20:14;22.50;99.90
6822;DHT22;3449;48.728;8.968;2022-08-11T07:23:01;22.50;99.90
6822;DHT22;3449;48.728;8.968;2022-08-11T07:25:51;22.70;99.90
6822;DHT22;3449;48.728;8.968;2022-08-11T07:28:46;22.70;99.90
6822;DHT22;3449;48.728;8.968;2022-08-11T07:31:29;22.60;99.90
6822;DHT22;3449;48.728;8.968;2022-08-11T07:34:08;23.00;99.90
6822;DHT22;3449;48.728;8.968;2022-08-11T07:36:39;23.10;99.90
6822;DHT22;3449;48.728;8.968;2022-08-11T07:39:08;23.20;99.90
6822;DHT22;3449;48.728;8.968;2022-08-11T07:41:38;23.30;99.90
6822;DHT22;3449;48.728;8.968;2022-08-11T07:44:05;23.40;99.90
6822;DHT22;3449;48.728;8.968;2022-08-11T07:46:40;23.40;99.90
6822;DHT22;3449;48.728;8.968;2022-08-11T07:49:27;23.30;99.90
6822;DHT22;3449;48.728;8.968;2022-08-11T07:52:12;23.30;99.90
6822;DHT22;3449;48.728;8.968;2022-08-11T07:54:57;23.50;99.90
6822;DHT22;3449;48.728;8.968;2022-08-11T07:57:26;23.90;99.90
6822;DHT22;3449;48.728;8.968;2022-08-11T08:00:12;24.00;99.90
6822;DHT22;3449;48.728;8.968;2022-08-11T08:02:58;23.80;99.90
6822;DHT22;3449;48.728;8.968;2022-08-11T08:05:43;24.00;99.90
6822;DHT22;3449;48.728;8.968;2022-08-11T08:08:28;24.00;99.90
6822;DHT22;3449;48.728;8.968;2022-08-11T08:11:14;24.10;99.90
6822;DHT22;3449;48.728;8.968;2022-08-11T08:14:00;24.00;99.90
6822;DHT22;3449;48.728;8.968;2022-08-11T08:16:46;24.40;99.90
6822;DHT22;3449;48.728;8.968;2022-08-11T08:19:31;24.60;99.90
6822;DHT22;3449;48.728;8.968;2022-08-11T08:21:59;24.30;99.90
6822;DHT22;3449;48.728;8.968;2022-08-11T08:24:27;24.40;99.90
6822;DHT22;3449;48.728;8.968;2022-08-11T08:26:55;24.60;99.90
6822;DHT22;3449;48.728;8.968;2022-08-11T08:29:28;24.80;99.90
6822;DHT22;3449;48.728;8.968;2022-08-11T08:32:13;25.00;99.90
6822;DHT22;3449;48.728;8.968;2022-08-11T08:34:42;25.00;99.90
6822;DHT22;3449;48.728;8.968;2022-08-11T08:37:09;24.50;99.90
6822;DHT22;3449;48.728;8.968;2022-08-11T08:39:37;24.40;99.90
6822;DHT22;3449;48.728;8.968;2022-08-11T08:42:08;24.80;99.90
6822;DHT22;3449;48.728;8.968;2022-08-11T08:44:43;24.80;99.90
6822;DHT22;3449;48.728;8.968;2022-08-11T08:47:14;25.20;99.90
6822;DHT22;3449;48.728;8.968;2022-08-11T08:49:45;25.10;99.90
6822;DHT22;3449;48.728;8.968;2022-08-11T08:52:15;25.20;99.90
6822;DHT22;3449;48.728;8.968;2022-08-11T08:54:45;25.10;99.90
6822;DHT22;3449;48.728;8.968;2022-08-11T08:57:16;25.00;99.90
6822;DHT22;3449;48.728;8.968;2022-08-11T08:59:47;25.00;99.90
6822;DHT22;3449;48.728;8.968;2022-08-11T09:02:16;25.10;99.90
6822;DHT22;3449;48.728;8.968;2022-08-11T09:04:45;25.30;99.90
6822;DHT22;3449;48.728;8.968;2022-08-11T09:07:15;25.60;99.90
6822;DHT22;3449;48.728;8.968;2022-08-11T09:09:44;25.50;99.90
6822;DHT22;3449;48.728;8.968;2022-08-11T09:12:12;25.50;99.90
6822;DHT22;3449;48.728;8.968;2022-08-11T09:14:41;25.60;99.90
6822;DHT22;3449;48.728;8.968;2022-08-11T09:17:32;25.60;99.90
6822;DHT22;3449;48.728;8.968;2022-08-11T09:20:02;25.50;99.90
6822;DHT22;3449;48.728;8.968;2022-08-11T09:22:31;25.30;99.90
6822;DHT22;3449;48.728;8.968;2022-08-11T09:25:18;25.70;99.90
6822;DHT22;3449;48.728;8.968;2022-08-11T09:28:20;26.10;99.90
6822;DHT22;3449;48.728;8.968;2022-08-11T09:30:49;26.30;99.90
6822;DHT22;3449;48.728;8.968;2022-08-11T09:33:20;26.00;99.70
6822;DHT22;3449;48.728;8.968;2022-08-11T09:35:48;26.30;99.90
6822;DHT22;3449;48.728;8.968;2022-08-11T09:38:18;26.40;99.60
6822;DHT22;3449;48.728;8.968;2022-08-11T09:41:06;26.00;99.80
6822;DHT22;3449;48.728;8.968;2022-08-11T09:43:37;26.10;99.10
6822;DHT22;3449;48.728;8.968;2022-08-11T09:46:25;26.10;99.30
6822;DHT22;3449;48.728;8.968;2022-08-11T09:48:57;26.40;99.40
6822;DHT22;3449;48.728;8.968;2022-08-11T09:51:27;26.30;99.90
6822;DHT22;3449;48.728;8.968;2022-08-11T09:53:56;26.30;99.90
6822;DHT22;3449;48.728;8.968;2022-08-11T09:56:25;26.70;99.30
6822;DHT22;3449;48.728;8.968;2022-08-11T09:59:10;27.00;99.10
6822;DHT22;3449;48.728;8.968;2022-08-11T10:01:40;26.90;98.70
6822;DHT22;3449;48.728;8.968;2022-08-11T10:04:23;27.20;98.80
6822;DHT22;3449;48.728;8.968;2022-08-11T10:06:55;27.30;99.60
6822;DHT22;3449;48.728;8.968;2022-08-11T10:09:34;27.30;99.00
6822;DHT22;3449;48.728;8.968;2022-08-11T10:12:04;27.40;97.80
6822;DHT22;3449;48.728;8.968;2022-08-11T10:14:33;27.20;97.80
6822;DHT22;3449;48.728;8.968;2022-08-11T10:17:21;27.00;98.70
6822;DHT22;3449;48.728;8.968;2022-08-11T10:19:50;26.70;97.40
6822;DHT22;3449;48.728;8.968;2022-08-11T10:22:18;26.90;96.90
6822;DHT22;3449;48.728;8.968;2022-08-11T10:25:04;27.00;96.60
6822;DHT22;3449;48.728;8.968;2022-08-11T10:27:49;27.20;97.20
6822;DHT22;3449;48.728;8.968;2022-08-11T10:30:24;27.90;98.00
6822;DHT22;3449;48.728;8.968;2022-08-11T10:33:10;27.30;96.90
6822;DHT22;3449;48.728;8.968;2022-08-11T10:35:57;27.70;98.00
6822;DHT22;3449;48.728;8.968;2022-08-11T10:38:25;28.50;97.40
6822;DHT22;3449;48.728;8.968;2022-08-11T10:40:53;28.10;96.30
6822;DHT22;3449;48.728;8.968;2022-08-11T10:43:36;28.70;96.50
6822;DHT22;3449;48.728;8.968;2022-08-11T10:46:06;28.90;95.50
6822;DHT22;3449;48.728;8.968;2022-08-11T10:48:51;28.30;95.50
6822;DHT22;3449;48.728;8.968;2022-08-11T10:51:21;28.30;95.50
6822;DHT22;3449;48.728;8.968;2022-08-11T10:54:05;28.30;95.50
6822;DHT22;3449;48.728;8.968;2022-08-11T10:56:50;28.60;95.50
6822;DHT22;3449;48.728;8.968;2022-08-11T10:59:36;29.00;95.00
6822;DHT22;3449;48.728;8.968;2022-08-11T11:02:03;28.60;94.60
6822;DHT22;3449;48.728;8.968;2022-08-11T11:04:40;28.40;94.50
6822;DHT22;3449;48.728;8.968;2022-08-11T11:07:17;28.80;94.60
6822;DHT22;3449;48.728;8.968;2022-08-11T11:09:51;28.60;93.40
6822;DHT22;3449;48.728;8.968;2022-08-11T11:12:36;28.20;93.90
6822;DHT22;3449;48.728;8.968;2022-08-11T11:15:23;28.50;93.90
6822;DHT22;3449;48.728;8.968;2022-08-11T11:18:10;28.20;94.00
6822;DHT22;3449;48.728;8.968;2022-08-11T11:20:40;28.70;93.70
6822;DHT22;3449;48.728;8.968;2022-08-11T11:23:15;28.40;93.90
6822;DHT22;3449;48.728;8.968;2022-08-11T11:26:24;28.70;93.40
6822;DHT22;3449;48.728;8.968;2022-08-11T11:32:13;29.30;94.50
6822;DHT22;3449;48.728;8.968;2022-08-11T11:37:32;29.20;93.10
6822;DHT22;3449;48.728;8.968;2022-08-11T11:40:05;29.20;93.20
6822;DHT22;3449;48.728;8.968;2022-08-11T11:42:35;28.70;92.60
6822;DHT22;3449;48.728;8.968;2022-08-11T11:45:02;28.40;93.20
6822;DHT22;3449;48.728;8.968;2022-08-11T11:47:31;28.80;93.10
6822;DHT22;3449;48.728;8.968;2022-08-11T11:49:58;28.30;93.10
6822;DHT22;3449;48.728;8.968;2022-08-11T11:52:26;28.30;93.20
6822;DHT22;3449;48.728;8.968;2022-08-11T11:54:55;28.70;93.30
6822;DHT22;3449;48.728;8.968;2022-08-11T11:57:24;28.90;93.20
6822;DHT22;3449;48.728;8.968;2022-08-11T12:00:10;29.90;92.70
6822;DHT22;3449;48.728;8.968;2022-08-11T12:02:55;29.80;91.70
6822;DHT22;3449;48.728;8.968;2022-08-11T12:05:24;29.30;92.10
6822;DHT22;3449;48.728;8.968;2022-08-11T12:07:52;30.20;92.70
6822;DHT22;3449;48.728;8.968;2022-08-11T12:10:37;30.40;91.70
6822;DHT22;3449;48.728;8.968;2022-08-11T12:13:06;29.50;91.10
6822;DHT22;3449;48.728;8.968;2022-08-11T12:15:51;29.00;91.10
6822;DHT22;3449;48.728;8.968;2022-08-11T12:18:19;29.20;91.70
6822;DHT22;3449;48.728;8.968;2022-08-11T12:20:46;30.10;91.90
6822;DHT22;3449;48.728;8.968;2022-08-11T12:23:13;30.30;90.90
6822;DHT22;3449;48.728;8.968;2022-08-11T12:25:59;30.10;90.10
6822;DHT22;3449;48.728;8.968;2022-08-11T12:28:45;29.80;90.50
6822;DHT22;3449;48.728;8.968;2022-08-11T12:31:12;30.10;90.40
6822;DHT22;3449;48.728;8.968;2022-08-11T12:33:40;30.90;90.20
6822;DHT22;3449;48.728;8.968;2022-08-11T12:36:09;31.10;89.90
6822;DHT22;3449;48.728;8.968;2022-08-11T12:38:43;30.80;89.20
6822;DHT22;3449;48.728;8.968;2022-08-11T12:41:13;30.60;89.50
6822;DHT22;3449;48.728;8.968;2022-08-11T12:44:00;31.30;89.60
6822;DHT22;3449;48.728;8.968;2022-08-11T12:46:45;30.30;88.00
6822;DHT22;3449;48.728;8.968;2022-08-11T12:49:16;30.30;87.60
6822;DHT22;3449;48.728;8.968;2022-08-11T12:52:05;29.70;88.90
6822;DHT22;3449;48.728;8.968;2022-08-11T12:54:37;30.20;88.70
6822;DHT22;3449;48.728;8.968;2022-08-11T12:57:11;29.90;87.30
6822;DHT22;3449;48.728;8.968;2022-08-11T12:59:59;30.30;87.40
6822;DHT22;3449;48.728;8.968;2022-08-11T13:02:43;30.60;86.40
6822;DHT22;3449;48.728;8.968;2022-08-11T13:05:30;30.90;86.30
6822;DHT22;3449;48.728;8.968;2022-08-11T13:08:00;30.60;86.50
6822;DHT22;3449;48.728;8.968;2022-08-11T13:10:28;30.20;86.20
6822;DHT22;3449;48.728;8.968;2022-08-11T13:13:14;30.20;84.60
6822;DHT22;3449;48.728;8.968;2022-08-11T13:15:45;30.60;84.70
6822;DHT22;3449;48.728;8.968;2022-08-11T13:18:14;31.20;85.30
6822;DHT22;3449;48.728;8.968;2022-08-11T13:20:42;31.30;84.40
6822;DHT22;3449;48.728;8.968;2022-08-11T13:23:10;30.70;84.30
6822;DHT22;3449;48.728;8.968;2022-08-11T13:25:38;30.40;84.50
6822;DHT22;3449;48.728;8.968;2022-08-11T13:28:06;30.60;84.60
6822;DHT22;3449;48.728;8.968;2022-08-11T13:30:34;30.30;83.80
6822;DHT22;3449;48.728;8.968;2022-08-11T13:33:21;30.50;84.50
6822;DHT22;3449;48.728;8.968;2022-08-11T13:35:51;30.20;84.70
6822;DHT22;3449;48.728;8.968;2022-08-11T13:38:22;30.40;85.40
6822;DHT22;3449;48.728;8.968;2022-08-11T13:40:51;31.20;86.40
6822;DHT22;3449;48.728;8.968;2022-08-11T13:43:20;31.20;86.20
6822;DHT22;3449;48.728;8.968;2022-08-11T13:45:48;32.00;85.40
6822;DHT22;3449;48.728;8.968;2022-08-11T13:48:17;31.60;82.10
6822;DHT22;3449;48.728;8.968;2022-08-11T13:50:46;31.30;82.10
6822;DHT22;3449;48.728;8.968;2022-08-11T13:53:31;30.80;82.60
6822;DHT22;3449;48.728;8.968;2022-08-11T13:55:58;30.50;83.90
6822;DHT22;3449;48.728;8.968;2022-08-11T13:58:26;30.60;84.10
6822;DHT22;3449;48.728;8.968;2022-08-11T14:00:54;31.00;84.70
6822;DHT22;3449;48.728;8.968;2022-08-11T14:03:24;30.80;83.20
6822;DHT22;3449;48.728;8.968;2022-08-11T14:05:56;31.00;84.60
6822;DHT22;3449;48.728;8.968;2022-08-11T14:08:27;30.70;82.60
6822;DHT22;3449;48.728;8.968;2022-08-11T14:11:01;30.60;83.20
6822;DHT22;3449;48.728;8.968;2022-08-11T14:13:49;31.00;82.50
6822;DHT22;3449;48.728;8.968;2022-08-11T14:16:19;31.50;82.50
6822;DHT22;3449;48.728;8.968;2022-08-11T14:18:49;31.40;80.90
6822;DHT22;3449;48.728;8.968;2022-08-11T14:21:20;30.90;81.90
6822;DHT22;3449;48.728;8.968;2022-08-11T14:24:07;31.10;81.90
6822;DHT22;3449;48.728;8.968;2022-08-11T14:26:36;31.10;81.50
6822;DHT22;3449;48.728;8.968;2022-08-11T14:29:07;30.90;80.80
6822;DHT22;3449;48.728;8.968;2022-08-11T14:31:37;31.20;81.10
6822;DHT22;3449;48.728;8.968;2022-08-11T14:34:06;31.60;81.00
6822;DHT22;3449;48.728;8.968;2022-08-11T14:36:38;31.60;81.20
6822;DHT22;3449;48.728;8.968;2022-08-11T14:39:08;31.90;81.20
6822;DHT22;3449;48.728;8.968;2022-08-11T14:41:37;31.30;80.60
6822;DHT22;3449;48.728;8.968;2022-08-11T14:44:23;31.40;80.40
6822;DHT22;3449;48.728;8.968;2022-08-11T14:47:17;31.00;80.00
6822;DHT22;3449;48.728;8.968;2022-08-11T14:49:45;31.00;80.10
6822;DHT22;3449;48.728;8.968;2022-08-11T14:52:15;30.80;81.30
6822;DHT22;3449;48.728;8.968;2022-08-11T14:54:45;31.50;79.70
6822;DHT22;3449;48.728;8.968;2022-08-11T14:57:31;32.00;79.30
6822;DHT22;3449;48.728;8.968;2022-08-11T15:00:05;31.50;79.20
6822;DHT22;3449;48.728;8.968;2022-08-11T15:02:35;31.40;78.60
6822;DHT22;3449;48.728;8.968;2022-08-11T15:05:23;31.90;78.60
6822;DHT22;3449;48.728;8.968;2022-08-11T15:07:54;32.40;77.90
6822;DHT22;3449;48.728;8.968;2022-08-11T15:10:22;32.20;77.60
6822;DHT22;3449;48.728;8.968;2022-08-11T15:12:49;32.00;78.20
6822;DHT22;3449;48.728;8.968;2022-08-11T15:15:16;31.80;78.50
6822;DHT22;3449;48.728;8.968;2022-08-11T15:18:03;31.90;79.40
6822;DHT22;3449;48.728;8.968;2022-08-11T15:20:31;32.50;77.80
6822;DHT22;3449;48.728;8.968;2022-08-11T15:23:18;32.30;77.30
6822;DHT22;3449;48.728;8.968;2022-08-11T15:26:06;32.10;76.50
6822;DHT22;3449;48.728;8.968;2022-08-11T15:28:38;32.50;76.30
6822;DHT22;3449;48.728;8.968;2022-08-11T15:31:33;32.30;76.00
6822;DHT22;3449;48.728;8.968;2022-08-11T15:34:21;32.00;77.10
6822;DHT22;3449;48.728;8.968;2022-08-11T15:37:09;31.50;76.20
6822;DHT22;3449;48.728;8.968;2022-08-11T15:40:02;31.20;77.70
6822;DHT22;3449;48.728;8.968;2022-08-11T15:42:52;31.30;77.00
6822;DHT22;3449;48.728;8.968;2022-08-11T15:45:40;31.30;76.70
6822;DHT22;3449;48.728;8.968;2022-08-11T15:48:28;31.20;76.10
6822;DHT22;3449;48.728;8.968;2022-08-11T15:51:01;31.40;76.40
6822;DHT22;3449;48.728;8.968;2022-08-11T15:53:33;31.50;76.20
6822;DHT22;3449;48.728;8.968;2022-08-11T15:56:07;32.00;75.50
6822;DHT22;3449;48.728;8.968;2022-08-11T15:58:39;31.30;74.10
6822;DHT22;3449;48.728;8.968;2022-08-11T16:01:24;31.10;75.50
6822;DHT22;3449;48.728;8.968;2022-08-11T16:04:14;31.10;75.00
6822;DHT22;3449;48.728;8.968;2022-08-11T16:06:47;31.00;75.10
6822;DHT22;3449;48.728;8.968;2022-08-11T16:09:18;31.20;75.10
6822;DHT22;3449;48.728;8.968;2022-08-11T16:11:48;31.10;74.90
6822;DHT22;3449;48.728;8.968;2022-08-11T16:14:16;31.00;75.50
6822;DHT22;3449;48.728;8.968;2022-08-11T16:17:04;31.50;76.20
6822;DHT22;3449;48.728;8.968;2022-08-11T16:19:33;31.30;75.40
6822;DHT22;3449;48.728;8.968;2022-08-11T16:22:05;30.90;75.00
6822;DHT22;3449;48.728;8.968;2022-08-11T16:24:37;30.80;75.50
6822;DHT22;3449;48.728;8.968;2022-08-11T16:27:11;31.10;75.50
6822;DHT22;3449;48.728;8.968;2022-08-11T16:29:45;30.80;75.40
6822;DHT22;3449;48.728;8.968;2022-08-11T16:32:15;30.60;74.90
6822;DHT22;3449;48.728;8.968;2022-08-11T16:34:44;30.60;75.80
6822;DHT22;3449;48.728;8.968;2022-08-11T16:37:29;30.30;75.90
6822;DHT22;3449;48.728;8.968;2022-08-11T16:40:14;30.30;76.10
6822;DHT22;3449;48.728;8.968;2022-08-11T16:42:45;29.80;75.80
6822;DHT22;3449;48.728;8.968;2022-08-11T16:45:31;29.30;76.90
6822;DHT22;3449;48.728;8.968;2022-08-11T16:48:17;29.30;77.20
6822;DHT22;3449;48.728;8.968;2022-08-11T16:50:45;29.00;77.10
6822;DHT22;3449;48.728;8.968;2022-08-11T16:53:12;29.00;77.70
6822;DHT22;3449;48.728;8.968;2022-08-11T16:55:42;29.10;77.80
6822;DHT22;3449;48.728;8.968;2022-08-11T16:58:12;29.00;77.90
6822;DHT22;3449;48.728;8.968;2022-08-11T17:00:58;29.00;77.90
6822;DHT22;3449;48.728;8.968;2022-08-11T17:03:29;28.90;78.50
6822;DHT22;3449;48.728;8.968;2022-08-11T17:06:17;28.70;78.90
6822;DHT22;3449;48.728;8.968;2022-08-11T17:09:03;28.50;79.10
6822;DHT22;3449;48.728;8.968;2022-08-11T17:11:51;28.40;79.20
6822;DHT22;3449;48.728;8.968;2022-08-11T17:14:42;28.50;79.90
6822;DHT22;3449;48.728;8.968;2022-08-11T17:17:13;28.20;79.20
6822;DHT22;3449;48.728;8.968;2022-08-11T17:19:45;28.00;79.80
6822;DHT22;3449;48.728;8.968;2022-08-11T17:22:13;27.90;80.00
6822;DHT22;3449;48.728;8.968;2022-08-11T17:24:58;27.90;80.50
6822;DHT22;3449;48.728;8.968;2022-08-11T17:27:26;27.90;81.00
6822;DHT22;3449;48.728;8.968;2022-08-11T17:29:57;28.00;80.20
6822;DHT22;3449;48.728;8.968;2022-08-11T17:32:30;28.00;79.30
6822;DHT22;3449;48.728;8.968;2022-08-11T17:35:18;27.90;79.80
6822;DHT22;3449;48.728;8.968;2022-08-11T17:38:00;27.60;79.80
6822;DHT22;3449;48.728;8.968;2022-08-11T17:40:31;27.50;80.10
6822;DHT22;3449;48.728;8.968;2022-08-11T17:43:05;27.50;80.20
6822;DHT22;3449;48.728;8.968;2022-08-11T17:45:54;27.50;80.20
6822;DHT22;3449;48.728;8.968;2022-08-11T17:48:41;27.50;80.50
6822;DHT22;3449;48.728;8.968;2022-08-11T17:51:11;27.50;80.30
6822;DHT22;3449;48.728;8.968;2022-08-11T17:53:59;27.50;80.50
6822;DHT22;3449;48.728;8.968;2022-08-11T17:56:45;27.50;81.30
6822;DHT22;3449;48.728;8.968;2022-08-11T17:59:31;27.30;80.40
6822;DHT22;3449;48.728;8.968;2022-08-11T18:02:28;27.30;80.90
6822;DHT22;3449;48.728;8.968;2022-08-11T18:05:14;27.20;81.20
6822;DHT22;3449;48.728;8.968;2022-08-11T18:07:43;27.10;81.30
6822;DHT22;3449;48.728;8.968;2022-08-11T18:10:29;27.00;81.50
6822;DHT22;3449;48.728;8.968;2022-08-11T18:13:15;27.00;82.90
6822;DHT22;3449;48.728;8.968;2022-08-11T18:16:00;26.90;82.00
6822;DHT22;3449;48.728;8.968;2022-08-11T18:18:46;26.80;81.90
6822;DHT22;3449;48.728;8.968;2022-08-11T18:21:31;26.80;83.00